Time;durP1;ratioP1;P1;durP2;ratioP2;P2;SDS_P1;SDS_P2;PMS_P1;PMS_P2;Temp;Humidity;BMP_temperature;BMP_pressure;BME280_temperature;BME280_humidity;BME280_pressure;Samples;Min_cycle;Max_cycle;Signal;HPM_P1;HPM_P2
2023/08/24 08:00:17;;;;;;;;;;;;;;;5.25;100.00;99574.00;4947077;28;19973;-88
2023/08/24 08:02:42;;;;;;;;;;;;;;;5.18;100.00;99570.63;4956845;28;19922;-84
2023/08/24 08:05:08;;;;;;;;;;;;;;;5.24;100.00;99565.25;4953863;28;19937;-83
2023/08/24 08:07:34;;;;;;;;;;;;;;;5.28;100.00;99566.03;4951652;28;19930;-83
2023/08/24 08:09:59;;;;;;;;;;;;;;;5.34;100.00;99559.75;4949204;28;20316;-83
2023/08/24 08:12:24;;;;;;;;;;;;;;;5.33;100.00;99547.50;4950447;28;19918;-82
2023/08/24 08:14:49;;;;;;;;;;;;;;;5.39;100.00;99539.47;4952555;28;19926;-83
2023/08/24 08:17:15;;;;;;;;;;;;;;;5.47;100.00;99542.78;4950960;29;20192;-82
2023/08/24 08:19:40;;;;;;;;;;;;;;;5.36;100.00;99547.44;4950562;29;19926;-85
2023/08/24 08:22:06;;;;;;;;;;;;;;;5.41;100.00;99548.22;4951197;28;20365;-81
2023/08/24 08:24:31;;;;;;;;;;;;;;;5.47;100.00;99553.28;4951003;29;19923;-83
2023/08/24 08:26:56;;;;;;;;;;;;;;;5.40;100.00;99543.84;4950730;29;20018;-83
2023/08/24 08:29:22;;;;;;;;;;;;;;;5.44;100.00;99545.47;4950104;28;20396;-85
2023/08/24 08:31:47;;;;;;;;;;;;;;;5.40;100.00;99544.69;4954669;28;19914;-83
2023/08/24 08:34:18;;;;;;;;;;;;;;;5.48;100.00;99546.28;4956438;29;19922;-85
2023/08/24 08:36:44;;;;;;;;;;;;;;;5.41;100.00;99540.31;4956471;28;19918;-84
2023/08/24 08:39:09;;;;;;;;;;;;;;;5.36;100.00;99545.69;4971245;28;20056;-84
2023/08/24 08:41:39;;;;;;;;;;;;;;;5.43;100.00;99538.50;4955306;28;19961;-85
2023/08/24 08:44:05;;;;;;;;;;;;;;;5.40;100.00;99538.59;4947832;29;19923;-83
2023/08/24 08:46:32;;;;;;;;;;;;;;;5.40;100.00;99541.22;4954044;29;19918;-84
2023/08/24 08:48:58;;;;;;;;;;;;;;;5.41;100.00;99532.44;4971054;28;19965;-83
2023/08/24 08:51:23;;;;;;;;;;;;;;;5.48;100.00;99512.97;4954987;28;20330;-83
2023/08/24 08:53:49;;;;;;;;;;;;;;;5.53;100.00;99503.19;4955896;29;19918;-84
2023/08/24 08:56:15;;;;;;;;;;;;;;;5.49;100.00;99498.94;4956260;29;20392;-83
2023/08/24 08:58:43;;;;;;;;;;;;;;;5.49;100.00;99492.81;4969498;28;19923;-83
2023/08/24 09:01:08;;;;;;;;;;;;;;;5.53;100.00;99487.41;4970891;28;19977;-83
2023/08/24 09:03:34;;;;;;;;;;;;;;;5.55;100.00;99484.75;4956039;29;19926;-83
2023/08/24 09:05:59;;;;;;;;;;;;;;;5.49;100.00;99484.91;4970819;28;20281;-83
2023/08/24 09:08:25;;;;;;;;;;;;;;;5.42;100.00;99465.81;4966398;28;20421;-84
2023/08/24 09:10:51;;;;;;;;;;;;;;;5.49;100.00;99474.41;4970651;28;19973;-82
2023/08/24 09:13:16;;;;;;;;;;;;;;;5.51;100.00;99480.50;4969420;28;19919;-82
2023/08/24 09:15:42;;;;;;;;;;;;;;;5.49;100.00;99488.44;4970589;28;19922;-83
2023/08/24 09:18:08;;;;;;;;;;;;;;;5.38;100.00;99474.72;4970380;28;20283;-84
2023/08/24 09:20:34;;;;;;;;;;;;;;;5.49;100.00;99472.66;4955683;28;19925;-84
2023/08/24 09:22:59;;;;;;;;;;;;;;;5.49;100.00;99464.78;4970322;28;20055;-83
2023/08/24 09:25:24;;;;;;;;;;;;;;;5.57;100.00;99459.31;4955754;29;19922;-84
2023/08/24 09:27:59;;;;;;;;;;;;;;;5.59;100.00;99449.63;4954344;29;19919;-85
2023/08/24 09:30:29;;;;;;;;;;;;;;;6.09;100.00;99449.09;4954698;29;20321;-85
2023/08/24 09:32:54;;;;;;;;;;;;;;;13.00;100.00;99429.47;4969453;28;19918;-84
2023/08/24 09:35:20;;;;;;;;;;;;;;;9.24;100.00;99438.63;4970304;28;19972;-84
2023/08/24 09:37:45;;;;;;;;;;;;;;;8.39;100.00;99438.53;4955418;28;19925;-84
2023/08/24 09:40:11;;;;;;;;;;;;;;;8.01;100.00;99439.13;4955175;29;20366;-85
2023/08/24 09:42:41;;;;;;;;;;;;;;;8.77;100.00;99433.53;4954037;28;19929;-85
2023/08/24 09:45:09;;;;;;;;;;;;;;;19.39;100.00;99409.69;4955250;28;19922;-85
2023/08/24 09:47:35;;;;;;;;;;;;;;;17.31;100.00;99380.03;4954292;29;20396;-83
2023/08/24 09:50:00;;;;;;;;;;;;;;;18.04;100.00;99402.06;4955010;28;19926;-82
2023/08/24 09:52:30;;;;;;;;;;;;;;;20.39;100.00;99373.22;4955905;28;20009;-84
2023/08/24 09:54:57;;;;;;;;;;;;;;;20.53;100.00;99363.88;4954224;29;20294;-85
2023/08/24 09:57:23;;;;;;;;;;;;;;;18.42;100.00;99392.75;4953337;28;20017;-84
2023/08/24 09:59:51;;;;;;;;;;;;;;;17.39;100.00;99409.75;4953965;28;20438;-85
2023/08/24 10:02:20;;;;;;;;;;;;;;;16.17;100.00;99398.22;4968934;28;19922;-83
2023/08/24 10:04:47;;;;;;;;;;;;;;;14.33;100.00;99400.94;4954905;28;20047;-83
2023/08/24 10:07:16;;;;;;;;;;;;;;;13.62;100.00;99400.94;4954682;28;20262;-83
2023/08/24 10:09:42;;;;;;;;;;;;;;;14.57;100.00;99398.50;4954897;28;19926;-83
2023/08/24 10:12:09;;;;;;;;;;;;;;;19.01;100.00;99386.94;4954145;29;19965;-82
2023/08/24 10:14:47;;;;;;;;;;;;;;;18.89;100.00;99366.53;4953345;28;19918;-82
2023/08/24 10:17:13;;;;;;;;;;;;;;;16.46;100.00;99397.09;4954312;29;19922;-83
2023/08/24 10:19:39;;;;;;;;;;;;;;;15.07;100.00;99407.63;4954944;28;19919;-82
2023/08/24 10:22:05;;;;;;;;;;;;;;;14.57;100.00;99419.81;4954427;29;19922;-82
2023/08/24 10:24:31;;;;;;;;;;;;;;;14.41;100.00;99419.09;4969234;28;20408;-83
2023/08/24 10:26:57;;;;;;;;;;;;;;;13.70;100.00;99410.25;4954560;28;19973;-83
2023/08/24 10:29:23;;;;;;;;;;;;;;;13.83;100.00;99402.34;4951956;29;19926;-83
2023/08/24 10:31:58;;;;;;;;;;;;;;;13.74;100.00;99403.78;4969504;28;19985;-83
2023/08/24 10:34:23;;;;;;;;;;;;;;;13.19;100.00;99398.16;4952879;29;19923;-83
2023/08/24 10:36:49;;;;;;;;;;;;;;;13.46;100.00;99400.13;4954429;28;19930;-83
2023/08/24 10:39:28;;;;;;;;;;;;;;;13.41;100.00;99400.41;4968922;28;19923;-83
2023/08/24 10:41:54;;;;;;;;;;;;;;;12.97;100.00;99381.78;4968757;28;19922;-82
2023/08/24 10:44:36;;;;;;;;;;;;;;;13.20;100.00;99378.59;4953025;28;20393;-82
2023/08/24 10:47:19;;;;;;;;;;;;;;;13.33;100.00;99369.91;4954250;28;19962;-83
2023/08/24 10:49:58;;;;;;;;;;;;;;;12.97;100.00;99360.50;4953988;29;19925;-83
2023/08/24 10:52:46;;;;;;;;;;;;;;;13.24;100.00;99357.97;4953718;29;19926;-83
2023/08/24 10:55:22;;;;;;;;;;;;;;;13.19;100.00;99355.59;4945527;29;19966;-83
2023/08/24 10:58:08;;;;;;;;;;;;;;;13.04;100.00;99348.56;4952482;29;19922;-83
2023/08/24 11:00:33;;;;;;;;;;;;;;;13.31;100.00;99348.69;4950576;29;19933;-83
2023/08/24 11:02:59;;;;;;;;;;;;;;;13.12;100.00;99343.63;4954091;28;19919;-82
2023/08/24 11:05:35;;;;;;;;;;;;;;;12.85;100.00;99340.81;4953421;28;19966;-83
2023/08/24 11:08:06;;;;;;;;;;;;;;;13.12;100.00;99346.28;4953917;28;19918;-85
2023/08/24 11:10:48;;;;;;;;;;;;;;;13.11;100.00;99343.72;4953460;29;19922;-80
2023/08/24 11:13:42;;;;;;;;;;;;;;;12.63;100.00;99341.22;4951949;29;19922;-84
2023/08/24 11:16:27;;;;;;;;;;;;;;;13.05;100.00;99345.81;4946770;29;19923;-82
2023/08/24 11:18:52;;;;;;;;;;;;;;;12.95;100.00;99349.09;4968482;28;20374;-82
2023/08/24 11:21:19;;;;;;;;;;;;;;;12.70;100.00;99339.91;4953671;29;19918;-83
2023/08/24 11:23:45;;;;;;;;;;;;;;;13.11;100.00;99341.06;4953954;28;19929;-83
2023/08/24 11:26:10;;;;;;;;;;;;;;;13.22;100.00;99318.16;4953577;29;19918;-83
2023/08/24 11:28:37;;;;;;;;;;;;;;;12.48;100.00;99311.94;4952590;29;19972;-82
2023/08/24 11:31:02;;;;;;;;;;;;;;;12.80;100.00;99308.34;4953732;28;20294;-82
2023/08/24 11:33:29;;;;;;;;;;;;;;;13.04;100.00;99295.38;4968441;28;19919;-83
2023/08/24 11:35:54;;;;;;;;;;;;;;;12.83;100.00;99286.91;4951850;28;19973;-83
2023/08/24 11:38:20;;;;;;;;;;;;;;;12.61;100.00;99282.00;4953499;29;19914;-82
2023/08/24 11:40:45;;;;;;;;;;;;;;;12.88;100.00;99293.63;4953707;29;20278;-81
2023/08/24 11:43:10;;;;;;;;;;;;;;;12.92;100.00;99304.09;4952526;29;20043;-82
2023/08/24 11:45:37;;;;;;;;;;;;;;;12.27;100.00;99291.91;4953959;29;19923;-83
2023/08/24 11:48:04;;;;;;;;;;;;;;;12.67;100.00;99289.63;4953386;29;19918;-82
2023/08/24 11:50:30;;;;;;;;;;;;;;;12.95;100.00;99291.44;4952354;28;20293;-83
2023/08/24 11:52:56;;;;;;;;;;;;;;;12.50;100.00;99287.94;4968456;28;19918;-83
2023/08/24 11:55:21;;;;;;;;;;;;;;;12.49;100.00;99292.41;4953500;28;20025;-83
2023/08/24 11:57:47;;;;;;;;;;;;;;;12.87;100.00;99305.19;4952324;28;19926;-83
2023/08/24 12:00:13;;;;;;;;;;;;;;;12.87;100.00;99329.13;4953297;29;19930;-83
2023/08/24 12:02:40;;;;;;;;;;;;;;;12.59;100.00;99363.59;4968159;28;20444;-82
2023/08/24 12:05:05;;;;;;;;;;;;;;;12.95;100.00;99407.59;4967374;28;20016;-83
2023/08/24 12:07:31;;;;;;;;;;;;;;;13.20;100.00;99442.44;4968233;28;20547;-85
2023/08/24 12:09:59;;;;;;;;;;;;;;;13.24;100.00;99444.00;4968171;28;19919;-83
2023/08/24 12:12:27;;;;;;;;;;;;;;;13.06;100.00;99461.03;4953379;28;19965;-82
2023/08/24 12:14:52;;;;;;;;;;;;;;;13.11;100.00;99458.94;4967261;28;19970;-80
2023/08/24 12:17:20;;;;;;;;;;;;;;;12.35;100.00;99422.53;4970365;28;19922;-82
2023/08/24 12:19:55;;;;;;;;;;;;;;;12.08;100.00;99371.81;4956869;28;20366;-82
2023/08/24 12:25:18;;;;;;;;;;;;;;;11.88;100.00;99389.63;4955978;29;19925;-82
2023/08/24 12:27:43;;;;;;;;;;;;;;;12.16;100.00;99396.97;4955165;29;20302;-83
2023/08/24 12:30:10;;;;;;;;;;;;;;;12.60;100.00;99383.94;4955242;28;19922;-83
2023/08/24 12:32:43;;;;;;;;;;;;;;;13.01;100.00;99373.53;4971313;28;20346;-81
2023/08/24 12:35:09;;;;;;;;;;;;;;;12.31;100.00;99352.75;4955839;29;20389;-82
2023/08/24 12:37:35;;;;;;;;;;;;;;;12.74;100.00;99361.88;4956521;28;19973;-82
2023/08/24 12:40:01;;;;;;;;;;;;;;;12.89;100.00;99379.56;4956431;28;20120;-82
2023/08/24 12:42:27;;;;;;;;;;;;;;;12.34;100.00;99378.31;4956114;28;19977;-82
2023/08/24 12:44:52;;;;;;;;;;;;;;;11.93;100.00;99344.28;4955617;28;19918;-82
2023/08/24 12:47:17;;;;;;;;;;;;;;;12.41;100.00;99350.44;4971351;28;19925;-82
2023/08/24 12:49:43;;;;;;;;;;;;;;;12.75;100.00;99360.91;4955174;28;19922;-82
2023/08/24 12:52:08;;;;;;;;;;;;;;;12.60;100.00;99365.31;4971044;28;20405;-82
2023/08/24 12:54:33;;;;;;;;;;;;;;;11.99;100.00;99362.53;4956018;29;20013;-82
2023/08/24 12:56:59;;;;;;;;;;;;;;;12.10;100.00;99356.63;4954872;29;19926;-82
2023/08/24 12:59:24;;;;;;;;;;;;;;;11.86;100.00;99372.94;4969395;28;19934;-81
2023/08/24 13:01:49;;;;;;;;;;;;;;;11.98;100.00;99382.94;4956164;29;20362;-82
2023/08/24 13:04:14;;;;;;;;;;;;;;;12.48;100.00;99394.31;4955903;29;19930;-83
2023/08/24 13:06:40;;;;;;;;;;;;;;;13.02;100.00;99414.25;4955244;29;19918;-82
2023/08/24 13:09:06;;;;;;;;;;;;;;;12.27;100.00;99435.34;4970652;28;19925;-80
2023/08/24 13:11:32;;;;;;;;;;;;;;;12.64;100.00;99457.25;4955730;28;20395;-82
2023/08/24 13:13:57;;;;;;;;;;;;;;;12.82;100.00;99461.50;4954640;29;20385;-82
2023/08/24 13:16:23;;;;;;;;;;;;;;;12.17;100.00;99451.81;4955683;28;19923;-82
2023/08/24 13:18:48;;;;;;;;;;;;;;;12.47;100.00;99439.56;4955857;29;20366;-82
2023/08/24 13:21:13;;;;;;;;;;;;;;;12.66;100.00;99447.38;4955610;29;19923;-83
2023/08/24 13:23:38;;;;;;;;;;;;;;;12.30;100.00;99438.72;4970392;28;19919;-83
2023/08/24 13:26:04;;;;;;;;;;;;;;;12.17;100.00;99382.78;4955560;29;19922;-82
2023/08/24 13:28:29;;;;;;;;;;;;;;;12.72;100.00;99330.06;4953874;28;19992;-82
2023/08/24 13:30:54;;;;;;;;;;;;;;;12.67;100.00;99317.03;4955514;29;20022;-82
2023/08/24 13:33:20;;;;;;;;;;;;;;;11.95;100.00;99306.09;4955398;28;20025;-84
2023/08/24 13:35:45;;;;;;;;;;;;;;;11.69;100.00;99264.19;4955464;28;19925;-83
2023/08/24 13:38:10;;;;;;;;;;;;;;;11.54;100.00;99239.38;4970262;28;19946;-83
2023/08/24 13:40:36;;;;;;;;;;;;;;;11.49;100.00;99236.09;4953823;29;19918;-82
2023/08/24 13:43:01;;;;;;;;;;;;;;;12.05;100.00;99226.78;4968722;28;20358;-83
2023/08/24 13:45:26;;;;;;;;;;;;;;;12.34;100.00;99232.19;4969888;28;20297;-88
2023/08/24 13:47:52;;;;;;;;;;;;;;;12.11;100.00;99217.59;4969985;28;19918;-82
2023/08/24 13:50:17;;;;;;;;;;;;;;;11.63;100.00;99201.69;4955117;29;20326;-84
2023/08/24 13:52:42;;;;;;;;;;;;;;;11.60;100.00;99191.28;4955139;28;19941;-83
2023/08/24 13:55:08;;;;;;;;;;;;;;;11.50;100.00;99190.06;4969741;28;20065;-82
2023/08/24 13:57:33;;;;;;;;;;;;;;;12.00;100.00;99199.66;4963460;28;19926;-82
2023/08/24 13:59:59;;;;;;;;;;;;;;;12.23;100.00;99210.72;4953595;29;19927;-84
2023/08/24 14:02:24;;;;;;;;;;;;;;;12.30;100.00;99218.25;4953601;29;20078;-83
2023/08/24 14:04:50;;;;;;;;;;;;;;;11.78;100.00;99229.19;4969777;28;20388;-83
2023/08/24 14:07:16;;;;;;;;;;;;;;;12.25;100.00;99238.88;4953491;29;19922;-82
2023/08/24 14:09:41;;;;;;;;;;;;;;;12.57;100.00;99240.59;4954668;29;19927;-82
2023/08/24 14:12:06;;;;;;;;;;;;;;;12.11;100.00;99237.06;4953462;29;20043;-82
2023/08/24 14:14:31;;;;;;;;;;;;;;;12.09;100.00;99238.06;4950616;29;20280;-83
2023/08/24 14:16:57;;;;;;;;;;;;;;;12.41;100.00;99244.16;4958800;28;20046;-81
2023/08/24 14:19:23;;;;;;;;;;;;;;;12.57;100.00;99251.22;4944222;28;19918;-81
2023/08/24 14:21:48;;;;;;;;;;;;;;;11.97;100.00;99248.47;4959978;28;19923;-82
2023/08/24 14:24:13;;;;;;;;;;;;;;;12.33;100.00;99252.59;4959521;28;19970;-82
2023/08/24 14:26:45;;;;;;;;;;;;;;;12.56;100.00;99261.00;4959373;28;20009;-82
2023/08/24 14:29:11;;;;;;;;;;;;;;;12.02;100.00;99257.97;4953367;28;19922;-85
2023/08/24 14:31:36;;;;;;;;;;;;;;;12.33;100.00;99263.22;4968348;28;20055;-82
2023/08/24 14:34:02;;;;;;;;;;;;;;;12.59;100.00;99259.94;4954589;29;19922;-82
2023/08/24 14:36:28;;;;;;;;;;;;;;;12.33;100.00;99265.00;4954417;28;19923;-82
2023/08/24 14:38:53;;;;;;;;;;;;;;;12.09;100.00;99262.81;4968171;28;20005;-82
2023/08/24 14:41:18;;;;;;;;;;;;;;;12.51;100.00;99289.66;4954163;29;20523;-82
2023/08/24 14:43:45;;;;;;;;;;;;;;;12.65;100.00;99355.28;4967812;28;19922;-82
2023/08/24 14:46:11;;;;;;;;;;;;;;;11.99;100.00;99424.47;4969080;28;19937;-82
2023/08/24 14:48:36;;;;;;;;;;;;;;;11.79;100.00;99451.19;4954198;28;19922;-82
2023/08/24 14:51:02;;;;;;;;;;;;;;;11.88;100.00;99433.91;4969101;28;19978;-82
2023/08/24 14:53:27;;;;;;;;;;;;;;;12.83;100.00;99418.00;4954017;28;19965;-82
2023/08/24 14:55:56;;;;;;;;;;;;;;;12.77;100.00;99414.84;4954209;28;19923;-82
2023/08/24 14:58:21;;;;;;;;;;;;;;;12.07;100.00;99426.69;4952340;29;20371;-82
2023/08/24 15:00:47;;;;;;;;;;;;;;;11.63;100.00;99425.47;4953912;28;19930;-82
2023/08/24 15:03:12;;;;;;;;;;;;;;;11.50;100.00;99418.25;4953976;28;19919;-82
2023/08/24 15:05:41;;;;;;;;;;;;;;;11.43;100.00;99434.47;4953967;28;19922;-82
2023/08/24 15:08:07;;;;;;;;;;;;;;;11.57;100.00;99452.34;4954032;28;19934;-82
2023/08/24 15:10:32;;;;;;;;;;;;;;;12.15;100.00;99466.97;4953912;29;19919;-82
2023/08/24 15:12:57;;;;;;;;;;;;;;;12.34;100.00;99489.88;4951353;29;19919;-82
2023/08/24 15:15:22;;;;;;;;;;;;;;;11.63;100.00;99507.75;4953883;29;19918;-82
2023/08/24 15:17:48;;;;;;;;;;;;;;;11.57;100.00;99525.78;4953826;29;19993;-83
2023/08/24 15:20:13;;;;;;;;;;;;;;;12.02;100.00;99537.63;4953896;29;19950;-82
2023/08/24 15:22:38;;;;;;;;;;;;;;;12.16;100.00;99544.88;4953674;29;19918;-82
2023/08/24 15:25:04;;;;;;;;;;;;;;;11.58;100.00;99522.16;4951576;28;20026;-85
2023/08/24 15:27:29;;;;;;;;;;;;;;;11.22;100.00;99485.97;4967722;28;20309;-85
2023/08/24 15:29:55;;;;;;;;;;;;;;;11.12;100.00;99458.19;4967140;28;19927;-83
2023/08/24 15:32:20;;;;;;;;;;;;;;;11.07;100.00;99451.34;4952166;28;19922;-84
2023/08/24 15:34:45;;;;;;;;;;;;;;;11.07;100.00;99448.69;4951329;28;20449;-85
2023/08/24 15:37:11;;;;;;;;;;;;;;;11.00;100.00;99455.22;4967353;28;19931;-86
2023/08/24 15:39:37;;;;;;;;;;;;;;;11.06;100.00;99444.31;4968113;28;19976;-82
2023/08/24 15:42:03;;;;;;;;;;;;;;;11.01;100.00;99421.59;4966424;28;20348;-82
2023/08/24 15:44:28;;;;;;;;;;;;;;;10.88;100.00;99426.66;4966027;28;19922;-82
2023/08/24 15:46:53;;;;;;;;;;;;;;;10.92;100.00;99444.16;4950188;28;20388;-82
2023/08/24 15:49:19;;;;;;;;;;;;;;;11.52;100.00;99458.81;4953029;28;19950;-83
2023/08/24 15:51:45;;;;;;;;;;;;;;;11.84;100.00;99488.09;4954548;28;19977;-83
2023/08/24 15:54:10;;;;;;;;;;;;;;;11.56;100.00;99534.66;4954547;28;20445;-81
2023/08/24 15:56:36;;;;;;;;;;;;;;;11.61;100.00;99588.34;4970116;28;20021;-83
2023/08/24 15:59:01;;;;;;;;;;;;;;;11.96;100.00;99724.66;4970365;28;19934;-83
2023/08/24 16:01:27;;;;;;;;;;;;;;;11.95;100.00;99717.66;4968804;28;19930;-83
2023/08/24 16:03:52;;;;;;;;;;;;;;;11.59;100.00;99693.72;4955342;28;19923;-86
2023/08/24 16:06:17;;;;;;;;;;;;;;;11.86;100.00;99653.50;4955702;29;19950;-83
2023/08/24 16:08:43;;;;;;;;;;;;;;;12.01;100.00;99627.97;4956352;28;20362;-83
2023/08/24 16:11:11;;;;;;;;;;;;;;;11.42;100.00;99546.84;4954501;28;19922;-82
2023/08/24 16:13:37;;;;;;;;;;;;;;;11.08;100.00;99514.03;4952609;28;19954;-83
2023/08/24 16:16:02;;;;;;;;;;;;;;;10.95;100.00;99475.81;4971660;28;19919;-82
2023/08/24 16:18:28;;;;;;;;;;;;;;;10.95;100.00;99481.09;4956231;28;19974;-83
2023/08/24 16:20:53;;;;;;;;;;;;;;;11.46;100.00;99470.59;4952760;28;20370;-83
2023/08/24 16:23:18;;;;;;;;;;;;;;;11.77;100.00;99467.19;4955707;28;20725;-81
2023/08/24 16:25:44;;;;;;;;;;;;;;;11.43;100.00;99455.69;4955565;28;19965;-83
2023/08/24 16:28:10;;;;;;;;;;;;;;;10.97;100.00;99415.59;4952959;28;19981;-82
2023/08/24 16:30:36;;;;;;;;;;;;;;;10.98;100.00;99388.19;4970076;28;20013;-82
2023/08/24 16:33:01;;;;;;;;;;;;;;;10.75;100.00;99393.78;4956405;29;19930;-83
2023/08/24 16:35:26;;;;;;;;;;;;;;;10.83;100.00;99396.88;4969362;28;20626;-82
2023/08/24 16:37:54;;;;;;;;;;;;;;;11.42;100.00;99395.63;4954235;28;19932;-84
2023/08/24 16:40:19;;;;;;;;;;;;;;;11.67;100.00;99383.69;4955820;28;19926;-82
2023/08/24 16:42:44;;;;;;;;;;;;;;;11.14;100.00;99382.09;4964317;28;19922;-82
2023/08/24 16:45:10;;;;;;;;;;;;;;;11.17;100.00;99350.09;4954595;28;19926;-84
2023/08/24 16:47:35;;;;;;;;;;;;;;;11.62;100.00;99319.41;4969891;28;19938;-83
2023/08/24 16:50:01;;;;;;;;;;;;;;;11.64;100.00;99294.50;4970617;28;19926;-82
2023/08/24 16:52:32;;;;;;;;;;;;;;;10.95;100.00;99271.69;4968717;28;19923;-83
2023/08/24 16:54:57;;;;;;;;;;;;;;;10.87;100.00;99245.59;4970376;28;19929;-83
2023/08/24 16:57:22;;;;;;;;;;;;;;;10.79;100.00;99225.75;4953570;28;19923;-82
2023/08/24 16:59:48;;;;;;;;;;;;;;;10.50;100.00;99221.00;4952038;28;20009;-82
2023/08/24 17:02:13;;;;;;;;;;;;;;;11.15;100.00;99235.31;4953852;28;19930;-82
2023/08/24 17:04:38;;;;;;;;;;;;;;;11.52;100.00;99268.66;4953088;28;19957;-83
2023/08/24 17:07:04;;;;;;;;;;;;;;;11.46;100.00;99266.34;4954572;28;19930;-82
2023/08/24 17:09:29;;;;;;;;;;;;;;;11.07;100.00;99281.66;4970231;28;20470;-83
2023/08/24 17:11:54;;;;;;;;;;;;;;;11.49;100.00;99318.34;4968878;28;20306;-83
2023/08/24 17:14:19;;;;;;;;;;;;;;;11.71;100.00;99313.59;4952951;28;19922;-84
2023/08/24 17:16:45;;;;;;;;;;;;;;;11.19;100.00;99349.09;4952279;28;19922;-84
2023/08/24 17:19:10;;;;;;;;;;;;;;;11.67;100.00;99377.56;4953526;28;20297;-85
2023/08/24 17:21:35;;;;;;;;;;;;;;;11.85;100.00;99349.13;4968664;28;19926;-84
2023/08/24 17:24:00;;;;;;;;;;;;;;;11.39;100.00;99350.69;4953068;28;19930;-83
2023/08/24 17:26:26;;;;;;;;;;;;;;;11.66;100.00;99359.91;4968402;28;20282;-85
2023/08/24 17:28:51;;;;;;;;;;;;;;;11.87;100.00;99340.16;4964775;28;19930;-84
2023/08/24 17:31:16;;;;;;;;;;;;;;;11.76;100.00;99348.72;4953151;28;19930;-83
2023/08/24 17:33:41;;;;;;;;;;;;;;;11.67;100.00;99357.16;4966852;28;19949;-83
2023/08/24 17:36:07;;;;;;;;;;;;;;;11.89;100.00;99345.38;4969099;28;19926;-83
2023/08/24 17:38:32;;;;;;;;;;;;;;;11.98;100.00;99328.94;4953739;28;19926;-84
2023/08/24 17:41:04;;;;;;;;;;;;;;;11.50;100.00;99354.56;4953596;28;19922;-82
2023/08/24 17:43:29;;;;;;;;;;;;;;;11.94;100.00;99335.41;4952542;28;19945;-83
2023/08/24 17:45:55;;;;;;;;;;;;;;;12.01;100.00;99323.47;4953157;28;20817;-83
2023/08/24 17:48:20;;;;;;;;;;;;;;;11.22;100.00;99287.94;4953856;28;19926;-82
2023/08/24 17:50:52;;;;;;;;;;;;;;;11.40;100.00;99277.28;4968835;28;19927;-83
2023/08/24 17:53:17;;;;;;;;;;;;;;;11.85;100.00;99309.31;4969088;28;20337;-84
2023/08/24 17:55:43;;;;;;;;;;;;;;;11.96;100.00;99325.53;4952558;28;19927;-82
2023/08/24 17:58:08;;;;;;;;;;;;;;;11.28;100.00;99310.63;4952035;28;19961;-83
2023/08/24 18:00:33;;;;;;;;;;;;;;;11.63;100.00;99263.59;4952977;28;19927;-83
2023/08/24 18:02:58;;;;;;;;;;;;;;;11.88;100.00;99234.81;4952792;28;19923;-84
2023/08/24 18:05:24;;;;;;;;;;;;;;;11.63;100.00;99217.63;4968363;28;20056;-83
2023/08/24 18:07:49;;;;;;;;;;;;;;;11.20;100.00;99204.09;4952785;28;19923;-83
2023/08/24 18:10:15;;;;;;;;;;;;;;;11.65;100.00;99189.22;4968701;28;19928;-82
2023/08/24 18:12:40;;;;;;;;;;;;;;;11.89;100.00;99199.38;4951665;28;19930;-82
2023/08/24 18:15:06;;;;;;;;;;;;;;;11.31;100.00;99199.03;4967486;28;20393;-83
2023/08/24 18:17:31;;;;;;;;;;;;;;;11.37;100.00;99196.06;4952399;28;19973;-82
2023/08/24 18:19:56;;;;;;;;;;;;;;;11.77;100.00;99193.81;4968434;28;19926;-83
2023/08/24 18:22:21;;;;;;;;;;;;;;;11.91;100.00;99201.00;4952352;28;19945;-80
2023/08/24 18:24:47;;;;;;;;;;;;;;;11.13;100.00;99202.72;4967301;28;19930;-84
2023/08/24 18:27:12;;;;;;;;;;;;;;;11.40;100.00;99190.59;4950588;28;20431;-87
2023/08/24 18:29:37;;;;;;;;;;;;;;;11.71;100.00;99194.19;4967326;28;19930;-83
2023/08/24 18:32:02;;;;;;;;;;;;;;;11.84;100.00;99188.16;4954397;29;19922;-83
2023/08/24 18:34:28;;;;;;;;;;;;;;;11.21;100.00;99201.34;4951857;28;19922;-83
2023/08/24 18:36:53;;;;;;;;;;;;;;;11.63;100.00;99197.25;4950929;28;19997;-82
2023/08/24 18:39:18;;;;;;;;;;;;;;;11.87;100.00;99191.50;4961357;28;20333;-83
2023/08/24 18:41:44;;;;;;;;;;;;;;;11.54;100.00;99181.00;4952726;28;19922;-83
2023/08/24 18:44:11;;;;;;;;;;;;;;;11.57;100.00;99180.84;4966620;28;20206;-82
2023/08/24 18:46:36;;;;;;;;;;;;;;;11.85;100.00;99171.28;4951823;28;19930;-82
2023/08/24 18:49:01;;;;;;;;;;;;;;;12.01;100.00;99163.31;4950876;28;19926;-83
2023/08/24 18:51:28;;;;;;;;;;;;;;;11.27;100.00;99142.69;4966101;28;19931;-82
2023/08/24 18:53:54;;;;;;;;;;;;;;;11.68;100.00;99149.25;4951245;28;19997;-83
2023/08/24 18:56:21;;;;;;;;;;;;;;;11.92;100.00;99149.66;4953587;28;19977;-88
2023/08/24 18:58:48;;;;;;;;;;;;;;;11.60;100.00;99154.13;4950946;28;19969;-83
2023/08/24 19:01:14;;;;;;;;;;;;;;;11.75;100.00;99158.53;4953225;28;19981;-84
2023/08/24 19:03:39;;;;;;;;;;;;;;;11.97;100.00;99167.97;4967625;28;20017;-86
2023/08/24 19:06:05;;;;;;;;;;;;;;;11.96;100.00;99175.06;4967449;28;20441;-83
2023/08/24 19:08:31;;;;;;;;;;;;;;;11.31;100.00;99169.03;4952291;28;19926;-85
2023/08/24 19:10:56;;;;;;;;;;;;;;;11.76;100.00;99173.53;4967030;28;20388;-83
2023/08/24 19:13:21;;;;;;;;;;;;;;;11.91;100.00;99177.09;4950970;28;20352;-81
2023/08/24 19:15:46;;;;;;;;;;;;;;;11.34;100.00;99176.81;4953751;29;19970;-82
2023/08/24 19:18:12;;;;;;;;;;;;;;;11.50;100.00;99200.69;4968494;28;20322;-83
2023/08/24 19:20:39;;;;;;;;;;;;;;;11.81;100.00;99205.97;4963856;28;19974;-82
2023/08/24 19:23:04;;;;;;;;;;;;;;;11.69;100.00;99222.59;4968397;28;19922;-83
2023/08/24 19:25:29;;;;;;;;;;;;;;;11.02;100.00;99222.69;4955199;28;19922;-81
2023/08/24 19:27:55;;;;;;;;;;;;;;;11.47;100.00;99216.78;4950340;28;19926;-82
2023/08/24 19:30:20;;;;;;;;;;;;;;;11.75;100.00;99221.41;4953469;28;19930;-82
2023/08/24 19:32:45;;;;;;;;;;;;;;;11.72;100.00;99230.38;4970839;28;20393;-83
2023/08/24 19:35:10;;;;;;;;;;;;;;;11.27;100.00;99221.38;4971603;28;20374;-84
2023/08/24 19:37:36;;;;;;;;;;;;;;;11.73;100.00;99228.59;4954054;28;19926;-81
2023/08/24 19:40:03;;;;;;;;;;;;;;;11.85;100.00;99238.50;4954425;28;19930;-82
2023/08/24 19:42:31;;;;;;;;;;;;;;;11.27;100.00;99242.59;4970983;28;19977;-83
2023/08/24 19:44:56;;;;;;;;;;;;;;;11.41;100.00;99236.56;4969558;28;20013;-82
2023/08/24 19:47:21;;;;;;;;;;;;;;;11.73;100.00;99245.38;4971051;28;20350;-83
2023/08/24 19:49:46;;;;;;;;;;;;;;;11.79;100.00;99247.69;4955306;28;20441;-82
2023/08/24 19:52:11;;;;;;;;;;;;;;;11.05;100.00;99234.94;4955259;28;19923;-81
2023/08/24 19:54:38;;;;;;;;;;;;;;;11.50;100.00;99230.72;4956662;28;19977;-83
2023/08/24 19:57:03;;;;;;;;;;;;;;;11.68;100.00;99222.66;4966948;28;19954;-81
2023/08/24 19:59:29;;;;;;;;;;;;;;;11.32;100.00;99223.78;4970025;28;20025;-82
2023/08/24 20:01:54;;;;;;;;;;;;;;;10.88;100.00;99223.47;4969658;28;19923;-81
2023/08/24 20:04:19;;;;;;;;;;;;;;;11.89;100.00;99221.47;4953063;28;19999;-87
2023/08/24 20:06:51;;;;;;;;;;;;;;;11.96;100.00;99220.19;4963554;28;19931;-86
2023/08/24 20:09:16;;;;;;;;;;;;;;;11.67;100.00;99221.81;4970316;28;20395;-83
2023/08/24 20:11:41;;;;;;;;;;;;;;;11.49;100.00;99228.16;4967889;28;19966;-83
2023/08/24 20:14:08;;;;;;;;;;;;;;;11.85;100.00;99225.22;4953330;28;20294;-83
2023/08/24 20:16:33;;;;;;;;;;;;;;;11.97;100.00;99219.25;4954135;28;19926;-81
2023/08/24 20:18:59;;;;;;;;;;;;;;;11.31;100.00;99217.59;4969967;28;20857;-81
2023/08/24 20:21:24;;;;;;;;;;;;;;;11.65;100.00;99221.06;4963757;28;19977;-82
2023/08/24 20:23:49;;;;;;;;;;;;;;;11.95;100.00;99217.63;4956055;28;19929;-81
2023/08/24 20:26:16;;;;;;;;;;;;;;;11.76;100.00;99208.03;4971160;28;20370;-81
2023/08/24 20:28:42;;;;;;;;;;;;;;;11.44;100.00;99193.94;4953728;28;20313;-82
2023/08/24 20:31:07;;;;;;;;;;;;;;;11.85;100.00;99197.84;4953558;28;19941;-86
2023/08/24 20:33:33;;;;;;;;;;;;;;;12.03;100.00;99196.81;4956517;28;19919;-82
2023/08/24 20:36:00;;;;;;;;;;;;;;;11.30;100.00;99194.69;4966289;28;19933;-82